Time;durP1;ratioP1;P1;durP2;ratioP2;P2;SDS_P1;SDS_P2;PMS_P1;PMS_P2;Temp;Humidity;BMP_temperature;BMP_pressure;BME280_temperature;BME280_humidity;BME280_pressure;Samples;Min_cycle;Max_cycle;Signal;HPM_P1;HPM_P2
2021/10/29 00:01:05;;;;;;;25.65;19.87;;;;;;;14.19;50.88;102632.35;1663918;82;21093;-50
2021/10/29 00:03:32;;;;;;;25.30;21.80;;;;;;;14.20;50.89;102633.64;1730614;82;20992;-52
2021/10/29 00:05:59;;;;;;;27.52;22.07;;;;;;;14.22;50.84;102628.42;1730290;82;21555;-50
2021/10/29 00:08:25;;;;;;;26.75;21.62;;;;;;;14.24;50.78;102622.27;1727809;82;20988;-49
2021/10/29 00:10:52;;;;;;;28.27;22.00;;;;;;;14.25;50.58;102634.50;1728666;82;21546;-51
2021/10/29 00:13:18;;;;;;;29.05;23.42;;;;;;;14.26;50.37;102623.13;1730043;82;21014;-51
2021/10/29 00:15:45;;;;;;;28.00;23.07;;;;;;;14.27;50.17;102627.92;1730569;82;21004;-50
2021/10/29 00:18:12;;;;;;;28.00;23.00;;;;;;;14.25;50.00;102625.33;1717840;82;21094;-50
2021/10/29 00:20:39;;;;;;;28.60;22.95;;;;;;;14.24;49.92;102628.81;1737395;82;21557;-51
2021/10/29 00:23:05;;;;;;;32.83;22.82;;;;;;;14.21;49.90;102624.92;1738027;82;21042;-50
2021/10/29 00:25:32;;;;;;;30.77;22.48;;;;;;;14.18;50.07;102625.39;1738483;82;21051;-51
2021/10/29 00:27:59;;;;;;;30.82;23.15;;;;;;;14.13;50.22;102624.11;1737649;82;21019;-50
2021/10/29 00:30:26;;;;;;;29.48;23.05;;;;;;;14.10;50.40;102622.81;1735438;82;21563;-49
2021/10/29 00:32:52;;;;;;;29.55;22.60;;;;;;;14.08;50.56;102621.95;1735299;82;21007;-49
2021/10/29 00:35:19;;;;;;;28.00;22.85;;;;;;;14.07;50.57;102620.23;1734924;82;21526;-50
2021/10/29 00:37:46;;;;;;;29.57;22.85;;;;;;;14.09;50.75;102622.39;1735903;82;21038;-56
2021/10/29 00:40:13;;;;;;;30.95;22.77;;;;;;;14.10;50.88;102619.31;1736554;82;21082;-50
2021/10/29 00:42:40;;;;;;;33.40;22.62;;;;;;;14.13;50.88;102617.56;1738649;82;20983;-49
2021/10/29 00:45:09;;;;;;;29.00;23.75;;;;;;;14.15;50.90;102617.55;1738446;82;21085;-51
2021/10/29 00:47:36;;;;;;;31.33;23.70;;;;;;;14.16;51.03;102609.67;1736461;82;21069;-48
2021/10/29 00:50:05;;;;;;;31.25;23.87;;;;;;;14.18;50.96;102611.84;1736814;82;21043;-51
2021/10/29 00:52:32;;;;;;;34.38;25.57;;;;;;;14.19;50.88;102607.05;1736686;82;21510;-49
2021/10/29 00:55:00;;;;;;;32.28;24.27;;;;;;;14.19;51.05;102609.66;1738575;82;21058;-48
2021/10/29 00:57:27;;;;;;;37.50;28.90;;;;;;;14.19;51.37;102614.91;1738704;82;21487;-51
2021/10/29 00:59:54;;;;;;;41.85;31.82;;;;;;;14.18;51.74;102607.91;1736774;82;20994;-50
2021/10/29 01:02:21;;;;;;;47.73;34.05;;;;;;;14.16;52.57;102599.20;1735468;82;21045;-49
2021/10/29 01:04:48;;;;;;;49.15;36.90;;;;;;;14.14;53.23;102602.70;1735171;82;21018;-50
2021/10/29 01:07:15;;;;;;;49.30;37.28;;;;;;;14.11;53.81;102597.08;1708270;82;21026;-49
2021/10/29 01:09:41;;;;;;;49.75;37.05;;;;;;;14.10;54.14;102604.48;1732556;82;20983;-50
2021/10/29 01:12:09;;;;;;;58.23;40.25;;;;;;;14.13;54.33;102605.78;1737747;82;21471;-51
2021/10/29 01:14:37;;;;;;;53.40;37.65;;;;;;;14.18;54.41;102604.45;1738343;82;21500;-52
2021/10/29 01:17:03;;;;;;;52.80;39.15;;;;;;;14.22;54.54;102607.01;1737960;82;21033;-50
2021/10/29 01:19:33;;;;;;;51.75;39.55;;;;;;;14.25;54.61;102604.38;1727762;82;21030;-51
2021/10/29 01:22:03;;;;;;;51.33;38.15;;;;;;;14.29;54.63;102612.67;1729871;82;20995;-50
2021/10/29 01:24:30;;;;;;;58.55;38.90;;;;;;;14.35;54.60;102611.75;1728600;82;21019;-50
2021/10/29 01:26:57;;;;;;;56.55;38.78;;;;;;;14.36;54.42;102613.03;1726922;82;21027;-52
2021/10/29 01:29:23;;;;;;;52.75;38.30;;;;;;;14.37;54.30;102614.79;1719145;82;21003;-50
2021/10/29 01:31:50;;;;;;;52.65;38.50;;;;;;;14.38;54.25;102611.30;1729606;82;21045;-50
2021/10/29 01:34:17;;;;;;;51.50;37.35;;;;;;;14.40;54.28;102620.02;1730281;82;21030;-49
2021/10/29 01:36:44;;;;;;;50.92;36.42;;;;;;;14.41;54.37;102613.88;1730448;82;21047;-50
2021/10/29 01:39:16;;;;;;;46.18;35.15;;;;;;;14.42;54.42;102607.78;1728038;82;21019;-54
2021/10/29 01:41:44;;;;;;;50.23;37.15;;;;;;;14.42;54.49;102615.64;1727742;82;21035;-49
2021/10/29 01:44:13;;;;;;;46.90;34.48;;;;;;;14.43;54.60;102614.73;1716094;82;21023;-50
2021/10/29 01:46:40;;;;;;;44.25;33.15;;;;;;;14.43;54.59;102610.81;1730472;82;20987;-50
2021/10/29 01:49:07;;;;;;;48.73;32.23;;;;;;;14.43;54.44;102614.73;1729087;82;20999;-51
2021/10/29 01:51:33;;;;;;;44.38;32.25;;;;;;;14.39;54.45;102619.58;1726992;82;21491;-49
2021/10/29 01:53:59;;;;;;;43.83;31.65;;;;;;;14.39;54.52;102618.70;1727466;82;20979;-51
2021/10/29 01:56:27;;;;;;;42.45;32.88;;;;;;;14.38;54.47;102620.47;1727829;82;21042;-54
2021/10/29 01:58:55;;;;;;;41.68;30.35;;;;;;;14.40;54.48;102620.02;1726826;82;21566;-49
2021/10/29 02:01:23;;;;;;;46.65;30.12;;;;;;;14.42;54.30;102616.95;1729140;82;21026;-50
2021/10/29 02:03:50;;;;;;;40.83;29.02;;;;;;;14.41;54.22;102621.73;1730266;82;21015;-48
2021/10/29 02:06:18;;;;;;;37.67;30.02;;;;;;;14.40;54.17;102622.64;1730335;82;21704;-50
2021/10/29 02:08:47;;;;;;;39.50;29.02;;;;;;;14.37;54.22;102621.77;1734318;82;21549;-51
2021/10/29 02:11:14;;;;;;;39.63;27.77;;;;;;;14.37;54.30;102620.03;1729085;82;21006;-51
2021/10/29 02:13:40;;;;;;;36.53;28.12;;;;;;;14.36;54.34;102621.36;1729430;82;21610;-48
2021/10/29 02:16:08;;;;;;;37.88;28.67;;;;;;;14.34;54.30;102612.18;1730494;82;21038;-49
2021/10/29 02:18:34;;;;;;;37.83;27.70;;;;;;;14.34;54.30;102606.09;1733067;82;21086;-50
2021/10/29 02:21:01;;;;;;;35.28;27.10;;;;;;;14.35;54.29;102617.86;1735666;82;21035;-49
2021/10/29 02:23:28;;;;;;;34.45;25.90;;;;;;;14.35;54.20;102616.55;1735501;82;21152;-50
2021/10/29 02:25:55;;;;;;;36.98;27.45;;;;;;;14.35;54.20;102616.55;1735144;82;21578;-50
2021/10/29 02:28:22;;;;;;;35.45;26.00;;;;;;;14.34;54.43;102613.49;1734999;82;21050;-49
2021/10/29 02:30:49;;;;;;;34.50;26.82;;;;;;;14.32;54.52;102616.56;1735851;82;21011;-51
2021/10/29 02:33:17;;;;;;;32.70;25.60;;;;;;;14.32;54.61;102619.18;1738144;82;20995;-50
2021/10/29 02:35:44;;;;;;;34.15;27.07;;;;;;;14.32;54.59;102615.72;1741910;82;21002;-50
2021/10/29 02:38:11;;;;;;;33.40;26.07;;;;;;;14.31;54.58;102614.84;1734852;82;21046;-50
2021/10/29 02:40:37;;;;;;;40.25;29.23;;;;;;;14.30;54.66;102615.70;1735462;82;20995;-51
2021/10/29 02:43:04;;;;;;;38.15;28.83;;;;;;;14.29;54.57;102613.98;1736093;82;20955;-49
2021/10/29 02:45:30;;;;;;;42.05;30.27;;;;;;;14.26;54.58;102619.20;1731245;82;21534;-48
2021/10/29 02:47:57;;;;;;;37.40;29.87;;;;;;;14.24;54.70;102611.79;1738395;82;21066;-49
2021/10/29 02:50:24;;;;;;;39.48;29.37;;;;;;;14.23;54.76;102616.62;1734356;82;21468;-49
2021/10/29 02:52:50;;;;;;;33.20;26.50;;;;;;;14.22;54.73;102614.86;1729521;82;21023;-49
2021/10/29 02:55:18;;;;;;;34.58;26.52;;;;;;;14.20;54.68;102614.00;1738606;82;21613;-49
2021/10/29 02:57:45;;;;;;;41.55;27.02;;;;;;;14.19;54.71;102614.91;1742896;82;21571;-51
2021/10/29 03:00:15;;;;;;;36.05;27.02;;;;;;;14.18;54.74;102618.39;1737243;82;21007;-51
2021/10/29 03:02:42;;;;;;;34.63;27.52;;;;;;;14.19;54.71;102612.28;1737896;82;20971;-51
2021/10/29 03:05:10;;;;;;;34.43;27.05;;;;;;;14.20;54.85;102616.63;1738499;82;21023;-50
2021/10/29 03:07:36;;;;;;;36.05;27.05;;;;;;;14.20;54.78;102616.63;1738646;82;21049;-51
2021/10/29 03:10:07;;;;;;;38.15;28.45;;;;;;;14.18;54.84;102618.39;1736576;82;20991;-50
2021/10/29 03:12:35;;;;;;;39.65;28.42;;;;;;;14.18;54.92;102615.77;1735198;82;21031;-50
2021/10/29 03:15:02;;;;;;;38.30;27.58;;;;;;;14.17;55.04;102620.59;1735529;82;21018;-49
2021/10/29 03:17:29;;;;;;;35.92;26.85;;;;;;;14.19;55.09;102622.75;1736019;82;21502;-51
2021/10/29 03:19:55;;;;;;;35.95;27.87;;;;;;;14.18;55.13;102623.63;1734894;82;21003;-49
2021/10/29 03:22:22;;;;;;;39.90;29.12;;;;;;;14.17;55.18;102627.13;1737537;82;21495;-51
2021/10/29 03:24:49;;;;;;;36.42;27.67;;;;;;;14.18;55.23;102622.77;1738571;82;21007;-50
2021/10/29 03:27:16;;;;;;;42.10;29.37;;;;;;;14.19;55.25;102626.69;1737976;82;21048;-49
2021/10/29 03:29:42;;;;;;;33.63;26.15;;;;;;;14.18;55.31;102626.23;1734830;82;21019;-50
2021/10/29 03:32:09;;;;;;;37.50;27.13;;;;;;;14.17;55.38;102624.52;1738600;82;21042;-51
2021/10/29 03:34:36;;;;;;;37.25;27.40;;;;;;;14.15;55.43;102629.33;1738633;82;21484;-54
2021/10/29 03:37:06;;;;;;;35.60;26.85;;;;;;;14.13;55.57;102630.66;1735818;82;20999;-51
2021/10/29 03:39:36;;;;;;;37.65;27.22;;;;;;;14.10;55.64;102635.89;1735278;82;20967;-51
2021/10/29 03:42:04;;;;;;;37.00;27.15;;;;;;;14.11;55.76;102637.66;1731436;82;21066;-49
2021/10/29 03:44:57;;;;;;;34.13;26.17;;;;;;;14.12;55.84;102638.06;1730829;82;21090;-49
2021/10/29 03:47:17;;;;;;;32.75;25.32;;;;;;;14.14;55.81;102636.73;1731119;82;21047;-49
2021/10/29 03:54:43;;;;;;;30.10;25.88;;;;;;;14.07;56.14;102641.17;1639818;87;21045;-50
2021/10/29 03:59:40;;;;;;;38.28;27.07;;;;;;;14.03;56.38;102643.37;1618773;88;21089;-56
2021/10/29 04:02:11;;;;;;;33.23;25.57;;;;;;;14.02;56.48;102642.93;1618690;88;21115;-50
2021/10/29 04:04:35;;;;;;;35.40;24.10;;;;;;;14.01;56.48;102649.49;1620646;88;21014;-52
2021/10/29 04:07:03;;;;;;;29.52;23.75;;;;;;;13.98;56.54;102650.37;1621072;88;21038;-49
2021/10/29 04:09:30;;;;;;;33.50;25.08;;;;;;;13.97;56.66;102649.96;1626611;88;21110;-49
2021/10/29 04:11:56;;;;;;;30.88;25.15;;;;;;;13.95;56.83;102647.75;1618767;88;21029;-51
2021/10/29 04:14:26;;;;;;;36.77;24.75;;;;;;;13.96;56.86;102654.75;1620214;88;21080;-50
2021/10/29 04:16:51;;;;;;;31.52;24.92;;;;;;;13.98;56.85;102656.91;1620534;88;21019;-50
2021/10/29 04:19:18;;;;;;;33.08;24.37;;;;;;;13.98;56.86;102658.66;1619682;88;21094;-49
2021/10/29 04:21:44;;;;;;;32.17;25.65;;;;;;;13.98;56.86;102659.53;1622879;88;21007;-49
2021/10/29 04:24:11;;;;;;;33.58;24.82;;;;;;;13.98;56.92;102666.08;1616294;88;21545;-49
2021/10/29 04:26:38;;;;;;;34.00;26.60;;;;;;;13.97;56.97;102668.28;1620360;88;21014;-50
2021/10/29 04:29:17;;;;;;;33.58;24.23;;;;;;;13.99;56.95;102666.52;1621198;88;21121;-48
2021/10/29 04:34:24;;;;;;;30.80;25.37;;;;;;;13.97;57.04;102668.28;1592997;90;21033;-50
2021/10/29 04:36:53;;;;;;;31.35;24.02;;;;;;;13.97;57.10;102666.97;1571281;90;21078;-48
2021/10/29 04:39:19;;;;;;;32.48;23.90;;;;;;;13.96;57.16;102666.95;1595661;90;21040;-50
2021/10/29 04:48:47;;;;;;;27.58;20.72;;;;;;;13.98;57.02;102677.85;1597642;89;21069;-51
2021/10/29 04:51:14;;;;;;;25.65;20.68;;;;;;;14.01;56.80;102688.75;1592337;89;21103;-51
2021/10/29 04:53:41;;;;;;;26.55;20.95;;;;;;;14.03;56.65;102689.61;1576907;90;21506;-49
2021/10/29 04:56:07;;;;;;;23.65;19.55;;;;;;;14.04;56.50;102688.72;1623263;87;21046;-53
2021/10/29 04:58:34;;;;;;;25.65;21.30;;;;;;;14.04;56.45;102686.98;1622944;87;21083;-49
2021/10/29 05:01:01;;;;;;;27.82;20.62;;;;;;;14.04;56.46;102693.52;1623645;87;21075;-50
2021/10/29 05:03:28;;;;;;;27.98;20.50;;;;;;;14.05;56.47;102695.70;1625831;87;21069;-51
2021/10/29 05:05:55;;;;;;;27.45;20.52;;;;;;;14.05;56.54;102700.52;1626354;87;21097;-49
2021/10/29 05:08:21;;;;;;;25.68;20.17;;;;;;;14.07;56.55;102696.14;1624709;87;21061;-52
2021/10/29 05:10:48;;;;;;;27.90;21.02;;;;;;;14.08;56.39;102701.79;1624309;87;21102;-51
2021/10/29 05:13:15;;;;;;;26.15;21.60;;;;;;;14.09;56.42;102710.09;1625562;87;21049;-51
2021/10/29 05:15:43;;;;;;;29.05;24.12;;;;;;;14.11;56.53;102705.72;1626246;87;21053;-49
2021/10/29 05:18:17;;;;;;;27.62;23.02;;;;;;;14.14;56.64;102712.66;1626436;87;20993;-50
2021/10/29 05:20:44;;;;;;;34.73;23.30;;;;;;;14.14;56.79;102718.77;1623450;88;21113;-49
2021/10/29 05:23:11;;;;;;;28.47;22.13;;;;;;;14.15;56.97;102710.05;1621286;88;21034;-51
2021/10/29 05:25:38;;;;;;;31.97;23.30;;;;;;;14.17;57.14;102713.53;1620611;88;21042;-50
2021/10/29 05:28:05;;;;;;;25.57;20.43;;;;;;;14.18;57.24;102713.95;1621337;88;21183;-49
2021/10/29 05:30:32;;;;;;;28.12;21.68;;;;;;;14.21;57.35;102720.48;1643593;84;21030;-50
2021/10/29 05:32:58;;;;;;;29.07;21.97;;;;;;;14.23;57.20;102726.59;1738343;82;20999;-50
2021/10/29 05:35:25;;;;;;;26.23;20.72;;;;;;;14.27;57.23;102726.13;1725087;82;21017;-50
2021/10/29 05:37:53;;;;;;;27.00;20.72;;;;;;;14.32;57.21;102733.09;1738742;82;21074;-51
2021/10/29 05:40:19;;;;;;;29.20;21.48;;;;;;;14.37;57.15;102731.34;1736266;82;21038;-49
2021/10/29 05:42:46;;;;;;;25.25;19.67;;;;;;;14.41;57.03;102731.75;1736874;82;21459;-50
2021/10/29 05:45:13;;;;;;;30.10;21.57;;;;;;;14.47;56.97;102732.14;1737498;82;21067;-51
2021/10/29 05:47:40;;;;;;;27.42;20.65;;;;;;;14.55;56.87;102735.14;1732902;82;21498;-51
2021/10/29 05:50:09;;;;;;;30.43;19.48;;;;;;;14.63;56.61;102733.33;1735419;82;21475;-50
2021/10/29 05:52:40;;;;;;;26.40;19.95;;;;;;;14.72;56.46;102735.45;1735464;82;21056;-50
2021/10/29 05:57:49;;;;;;;27.27;20.20;;;;;;;14.93;56.12;102736.61;1735852;82;21022;-52
2021/10/29 06:00:26;;;;;;;26.57;20.72;;;;;;;15.05;55.83;102741.30;1732052;82;21498;-50
2021/10/29 06:02:54;;;;;;;26.30;20.30;;;;;;;15.17;55.67;102741.63;1739433;82;21018;-53
2021/10/29 06:05:20;;;;;;;31.12;22.15;;;;;;;15.24;55.51;102748.56;1742217;82;21487;-52
2021/10/29 06:07:48;;;;;;;27.58;21.80;;;;;;;15.30;55.38;102749.81;1735074;82;21038;-50
2021/10/29 06:10:15;;;;;;;30.90;21.35;;;;;;;15.35;55.27;102748.87;1735577;82;21009;-50
2021/10/29 06:12:43;;;;;;;24.00;20.92;;;;;;;15.39;55.26;102753.67;1735170;82;21050;-55
2021/10/29 06:15:11;;;;;;;29.30;22.58;;;;;;;15.43;55.21;102750.16;1736450;82;21525;-51
2021/10/29 06:17:38;;;;;;;26.00;22.00;;;;;;;15.45;55.24;102749.27;1738772;82;21495;-51
2021/10/29 06:20:07;;;;;;;29.98;21.85;;;;;;;15.47;55.41;102751.87;1740027;82;21023;-51
2021/10/29 06:22:38;;;;;;;28.38;21.25;;;;;;;15.52;55.41;102750.05;1740247;82;21049;-51
2021/10/29 06:30:06;;;;;;;27.80;20.60;;;;;;;15.60;55.33;102747.37;1679410;85;21050;-48
2021/10/29 06:32:35;;;;;;;24.85;20.77;;;;;;;15.65;55.30;102751.67;1683215;85;21534;-53
2021/10/29 06:35:01;;;;;;;26.95;19.75;;;;;;;15.68;55.30;102756.90;1672510;85;21030;-52
2021/10/29 06:37:28;;;;;;;27.80;20.48;;;;;;;15.73;55.24;102759.02;1641784;87;21027;-50
2021/10/29 06:39:55;;;;;;;23.85;19.90;;;;;;;15.81;55.16;102761.10;1672339;85;21026;-49
2021/10/29 06:42:27;;;;;;;25.32;21.12;;;;;;;15.88;55.15;102757.53;1672732;85;21002;-53
2021/10/29 06:45:05;;;;;;;30.35;21.85;;;;;;;15.93;55.03;102760.95;1666354;85;21082;-50
2021/10/29 06:47:36;;;;;;;26.17;22.03;;;;;;;15.92;55.00;102756.61;1675211;85;21071;-52
2021/10/29 07:00:51;;;;;;;25.72;21.95;;;;;;;15.97;54.83;102760.50;1671140;85;21134;-50
2021/10/29 07:11:45;;;;;;;29.52;23.60;;;;;;;15.99;55.06;102772.69;1674927;85;21082;-51
2021/10/29 07:41:30;;;;;;;25.08;20.30;;;;;;;16.84;57.83;102770.22;1690529;84;21552;-50
2021/10/29 07:44:01;;;;;;;24.82;19.77;;;;;;;16.95;57.66;102766.98;1693481;84;21529;-50
2021/10/29 07:46:25;;;;;;;24.10;20.32;;;;;;;17.03;57.62;102763.34;1689258;84;21584;-51
2021/10/29 07:48:52;;;;;;;25.90;19.52;;;;;;;17.12;57.54;102766.70;1695852;84;21061;-52
2021/10/29 07:51:19;;;;;;;25.40;20.77;;;;;;;17.20;57.51;102766.13;1692320;84;21057;-50
2021/10/29 07:53:45;;;;;;;32.60;22.05;;;;;;;17.29;57.37;102762.88;1691550;84;21465;-50
2021/10/29 07:56:12;;;;;;;23.92;20.68;;;;;;;17.36;57.25;102769.77;1690778;84;21099;-50
2021/10/29 07:58:39;;;;;;;23.57;20.20;;;;;;;17.44;57.17;102765.23;1717918;83;21481;-50
2021/10/29 08:01:06;;;;;;;24.23;19.57;;;;;;;17.51;57.04;102768.67;1743961;82;21003;-54
2021/10/29 08:03:33;;;;;;;30.45;20.25;;;;;;;17.58;57.03;102776.41;1743478;82;21025;-51
2021/10/29 08:06:00;;;;;;;29.72;20.45;;;;;;;17.64;56.97;102772.81;1729963;82;21038;-55
2021/10/29 08:08:26;;;;;;;26.52;21.73;;;;;;;17.72;56.87;102769.11;1741688;82;21475;-50
2021/10/29 08:10:53;;;;;;;26.48;20.50;;;;;;;17.82;56.70;102774.64;1740059;82;21046;-53
2021/10/29 08:13:19;;;;;;;23.67;20.70;;;;;;;17.89;56.56;102773.61;1739084;82;21058;-54
2021/10/29 08:15:46;;;;;;;24.63;22.02;;;;;;;17.97;56.24;102776.55;1746109;81;21078;-53
2021/10/29 08:18:16;;;;;;;24.55;19.98;;;;;;;18.04;56.08;102776.81;1742996;82;21039;-48
2021/10/29 08:20:43;;;;;;;25.60;20.35;;;;;;;18.09;56.11;102776.29;1737242;81;21071;-50
2021/10/29 08:23:11;;;;;;;23.42;19.95;;;;;;;18.15;56.03;102776.16;1735597;82;21530;-48
2021/10/29 08:25:39;;;;;;;23.83;20.62;;;;;;;18.21;55.85;102774.71;1735289;82;21031;-50
2021/10/29 08:28:06;;;;;;;23.38;19.35;;;;;;;18.27;55.15;102772.81;1732577;82;20974;-48
2021/10/29 08:30:33;;;;;;;27.42;20.00;;;;;;;18.32;54.79;102780.62;1735378;82;21018;-50
2021/10/29 08:32:59;;;;;;;25.15;20.23;;;;;;;18.35;54.53;102776.59;1738786;82;21491;-48
2021/10/29 08:35:26;;;;;;;24.77;19.75;;;;;;;18.40;54.36;102785.28;1738485;82;21018;-53
2021/10/29 08:37:53;;;;;;;23.38;20.35;;;;;;;18.47;54.21;102781.63;1735707;82;21007;-50
2021/10/29 08:40:21;;;;;;;22.22;19.42;;;;;;;18.53;54.01;102788.07;1735899;82;20980;-49
2021/10/29 08:42:49;;;;;;;24.12;19.62;;;;;;;18.58;53.87;102786.21;1735542;82;21006;-49
2021/10/29 08:45:17;;;;;;;25.32;20.57;;;;;;;18.61;53.64;102783.48;1728405;82;21050;-48
2021/10/29 08:47:46;;;;;;;23.00;19.37;;;;;;;18.65;53.52;102789.98;1738394;82;21546;-49
2021/10/29 08:50:17;;;;;;;26.52;20.32;;;;;;;18.70;53.45;102788.56;1737385;82;20971;-50
2021/10/29 08:52:48;;;;;;;26.77;20.25;;;;;;;18.77;53.29;102787.53;1735770;82;20980;-52
2021/10/29 08:55:20;;;;;;;23.12;19.77;;;;;;;18.84;53.11;102796.14;1735528;82;21007;-49
2021/10/29 08:57:48;;;;;;;25.57;21.17;;;;;;;18.87;52.90;102791.68;1735682;82;21054;-51
2021/10/29 09:00:18;;;;;;;24.32;20.77;;;;;;;18.91;52.78;102788.06;1735334;82;21572;-49
2021/10/29 09:03:03;;;;;;;26.75;22.52;;;;;;;18.95;52.54;102790.16;1703855;84;21002;-50
2021/10/29 09:05:46;;;;;;;27.90;21.15;;;;;;;18.97;52.28;102789.67;1700810;84;21054;-50
2021/10/29 09:32:48;;;;;;;28.35;22.67;;;;;;;19.23;51.68;102793.84;1602435;89;21071;-51
2021/10/29 09:35:15;;;;;;;27.52;22.27;;;;;;;19.26;51.86;102799.06;1561444;89;21123;-49
2021/10/29 09:38:09;;;;;;;25.57;22.50;;;;;;;19.26;51.64;102794.66;1598608;89;21068;-52
2021/10/29 09:41:03;;;;;;;25.92;22.05;;;;;;;19.26;51.67;102786.73;1587101;89;21178;-51
2021/10/29 09:43:36;;;;;;;24.52;21.85;;;;;;;19.29;51.64;102785.32;1493860;95;21173;-49
2021/10/29 09:46:06;;;;;;;27.87;22.32;;;;;;;19.33;51.47;102794.92;1493003;95;21567;-51
2021/10/29 09:48:45;;;;;;;28.17;21.90;;;;;;;19.35;51.29;102785.19;1533835;92;21089;-51
2021/10/29 09:51:15;;;;;;;25.88;21.52;;;;;;;19.37;51.34;102779.42;1506122;94;21130;-52
2021/10/29 09:58:48;;;;;;;24.60;21.85;;;;;;;19.52;51.39;102779.47;1495485;94;21143;-50
2021/10/29 10:01:15;;;;;;;27.27;21.33;;;;;;;19.55;50.91;102785.13;1505248;94;21528;-54
2021/10/29 10:03:44;;;;;;;29.63;22.98;;;;;;;19.59;50.75;102789.42;1500414;94;21088;-51
2021/10/29 10:06:12;;;;;;;28.55;22.67;;;;;;;19.62;50.64;102785.39;1501757;93;21135;-50
2021/10/29 10:08:39;;;;;;;28.00;23.52;;;;;;;19.63;50.45;102784.47;1535007;93;21060;-52
2021/10/29 10:11:07;;;;;;;24.92;22.10;;;;;;;19.63;50.40;102785.79;1534912;92;21107;-55
2021/10/29 10:13:34;;;;;;;25.27;22.55;;;;;;;19.63;50.34;102782.70;1534869;93;21121;-50
2021/10/29 10:16:02;;;;;;;28.95;23.47;;;;;;;19.64;50.40;102795.46;1535024;93;21638;-51
2021/10/29 10:18:30;;;;;;;29.02;22.77;;;;;;;19.65;50.26;102790.58;1530062;92;21068;-52
2021/10/29 10:20:59;;;;;;;27.42;22.17;;;;;;;19.67;50.30;102796.67;1596998;86;21119;-52
2021/10/29 10:26:11;;;;;;;32.83;28.05;;;;;;;19.70;50.21;102793.97;1577446;89;21178;-51
2021/10/29 10:28:59;;;;;;;31.68;26.07;;;;;;;19.73;50.20;102794.74;1561984;90;21536;-50
2021/10/29 10:40:32;;;;;;;27.13;24.20;;;;;;;19.82;50.27;102788.34;1579571;89;21101;-53
2021/10/29 10:45:51;;;;;;;28.00;22.67;;;;;;;19.85;49.92;102791.75;1579797;89;21093;-51
2021/10/29 10:48:27;;;;;;;23.87;21.20;;;;;;;19.84;49.97;102787.40;1606703;87;21066;-49
2021/10/29 10:51:00;;;;;;;25.97;23.20;;;;;;;19.85;50.25;102789.56;1572718;90;21081;-51
2021/10/29 10:53:40;;;;;;;27.77;22.37;;;;;;;19.86;50.28;102787.34;1558359;91;21133;-51
2021/10/29 11:09:58;;;;;;;24.27;21.42;;;;;;;19.92;50.71;102783.20;1519994;94;21077;-50
2021/10/29 11:12:47;;;;;;;25.88;22.17;;;;;;;19.90;50.86;102783.70;1492829;95;21632;-50
2021/10/29 11:15:25;;;;;;;28.50;22.82;;;;;;;19.88;51.07;102777.60;1496688;95;21156;-51
2021/10/29 11:18:18;;;;;;;27.37;22.45;;;;;;;19.87;51.07;102777.17;1474065;96;21164;-49
2021/10/29 11:20:50;;;;;;;27.05;22.22;;;;;;;19.83;51.01;102779.05;1431003;99;21106;-50
2021/10/29 11:26:08;;;;;;;27.10;21.15;;;;;;;19.87;51.30;102777.17;1358990;104;21187;-49
2021/10/29 11:28:40;;;;;;;27.95;21.37;;;;;;;19.91;51.25;102776.17;1358782;104;21214;-50
2021/10/29 11:31:13;;;;;;;27.37;23.70;;;;;;;19.94;51.17;102785.34;1327135;107;21167;-51
2021/10/29 11:33:44;;;;;;;29.30;23.67;;;;;;;19.97;50.85;102777.35;1309414;107;21214;-51
2021/10/29 11:36:15;;;;;;;28.47;23.27;;;;;;;20.00;50.86;102782.53;1325920;107;21252;-51
2021/10/29 11:38:46;;;;;;;28.83;23.00;;;;;;;20.00;50.76;102785.17;1344659;106;21199;-52
2021/10/29 11:41:23;;;;;;;32.50;24.18;;;;;;;19.96;50.82;102776.48;1344635;107;21145;-50
2021/10/29 11:43:50;;;;;;;29.40;24.18;;;;;;;19.96;50.88;102779.56;1325214;108;21267;-50
2021/10/29 11:46:18;;;;;;;27.30;23.73;;;;;;;19.97;50.82;102773.39;1352377;104;21549;-52
2021/10/29 11:48:56;;;;;;;29.00;23.83;;;;;;;19.96;50.72;102775.60;1348277;106;21188;-51
2021/10/29 11:51:23;;;;;;;30.12;22.27;;;;;;;19.95;50.81;102777.81;1335562;106;21661;-49
2021/10/29 11:59:13;;;;;;;37.03;32.05;;;;;;;20.00;50.99;102775.48;1338711;107;21220;-49
2021/10/29 12:01:38;;;;;;;;;;;;;;;20.02;51.08;102779.39;1341703;106;21630;-51
2021/10/29 12:09:28;;;;;;;28.17;23.10;;;;;;;20.01;50.69;102777.19;1291918;110;21193;-53
2021/10/29 12:12:02;;;;;;;29.10;23.65;;;;;;;19.98;50.72;102782.58;1296712;109;21693;-51
2021/10/29 12:14:34;;;;;;;27.77;24.80;;;;;;;19.97;50.82;102784.80;1299586;109;21687;-51
2021/10/29 12:17:17;;;;;;;28.20;23.60;;;;;;;19.96;50.71;102783.53;1326996;108;21167;-50
2021/10/29 12:19:44;;;;;;;26.90;21.62;;;;;;;19.93;50.91;102787.12;1324856;106;21167;-50
2021/10/29 12:22:31;;;;;;;25.77;22.65;;;;;;;19.91;51.32;102781.45;1321646;107;21172;-52
2021/10/29 12:25:08;;;;;;;26.20;22.00;;;;;;;19.89;51.66;102780.64;1331144;107;21150;-50
2021/10/29 12:27:36;;;;;;;28.25;22.75;;;;;;;19.90;51.81;102777.10;1317575;106;21663;-49
2021/10/29 12:30:21;;;;;;;27.05;21.77;;;;;;;19.92;51.93;102779.25;1331231;107;21220;-50
2021/10/29 12:53:12;;;;;;;24.92;21.87;;;;;;;19.96;51.11;102780.89;1457784;96;21139;-49
2021/10/29 13:04:03;;;;;;;25.90;22.45;;;;;;;19.90;51.20;102779.75;1484712;94;21150;-49
2021/10/29 13:06:45;;;;;;;26.45;23.38;;;;;;;19.86;51.44;102778.10;1484752;94;21124;-49
2021/10/29 13:09:22;;;;;;;26.60;23.45;;;;;;;19.83;51.74;102776.85;1558208;90;21113;-51
2021/10/29 13:12:01;;;;;;;26.33;22.80;;;;;;;19.84;51.96;102776.83;1545785;93;21116;-51
2021/10/29 13:14:35;;;;;;;27.27;21.70;;;;;;;19.84;52.06;102777.28;1546139;93;21111;-49
2021/10/29 13:17:03;;;;;;;25.08;21.05;;;;;;;19.82;52.02;102783.06;1543313;93;21075;-48
2021/10/29 13:19:40;;;;;;;24.75;21.48;;;;;;;19.77;52.15;102783.18;1546316;93;21104;-49
2021/10/29 13:27:38;;;;;;;26.00;21.75;;;;;;;19.81;52.18;102783.50;1517113;93;21091;-50
2021/10/29 14:31:53;;;;;;;39.98;34.50;;;;;;;19.30;52.54;102767.27;1735177;82;21090;-50
2021/10/29 14:34:28;;;;;;;28.60;24.47;;;;;;;19.27;52.59;102767.34;1723964;82;21121;-50
2021/10/29 14:37:00;;;;;;;26.90;23.32;;;;;;;19.24;52.61;102764.80;1727493;82;20991;-50
2021/10/29 14:44:28;;;;;;;24.90;21.80;;;;;;;19.14;52.76;102761.11;1664749;85;21062;-49
2021/10/29 14:47:04;;;;;;;24.87;21.42;;;;;;;19.10;52.79;102755.02;1672596;85;21098;-48
2021/10/29 14:52:24;;;;;;;26.07;21.80;;;;;;;19.03;52.97;102761.81;1644216;87;21019;-50
2021/10/29 15:05:27;;;;;;;45.15;39.25;;;;;;;18.81;53.21;102757.54;1644405;87;21058;-50
2021/10/29 15:16:26;;;;;;;57.48;46.35;;;;;;;18.64;53.47;102764.97;1632698;87;21004;-49
2021/10/29 15:26:51;;;;;;;43.38;33.70;;;;;;;18.45;54.23;102781.66;1639764;87;21653;-50
2021/10/29 15:32:02;;;;;;;38.00;32.70;;;;;;;18.38;54.31;102780.49;1705671;83;21022;-50
2021/10/29 15:43:02;;;;;;;41.75;36.75;;;;;;;18.22;54.27;102783.02;1710009;83;21089;-52
2021/10/29 15:45:26;;;;;;;43.30;38.58;;;;;;;18.17;54.31;102790.16;1705424;83;21500;-50
2021/10/29 15:50:30;;;;;;;46.08;37.55;;;;;;;18.07;54.50;102793.45;1704132;83;21046;-49
2021/10/29 15:52:52;;;;;;;51.45;38.83;;;;;;;18.04;54.40;102796.58;1699708;83;21003;-52
2021/10/29 15:58:02;;;;;;;52.40;41.75;;;;;;;17.97;54.60;102797.62;1626825;86;21522;-49
2021/10/29 16:02:55;;;;;;;59.05;48.63;;;;;;;17.89;54.79;102806.53;1619000;88;21579;-49
2021/10/29 16:19:02;;;;;;;41.08;33.88;;;;;;;17.69;54.83;102807.36;1552683;91;21130;-49
2021/10/29 16:21:28;;;;;;;44.48;38.15;;;;;;;17.66;54.77;102809.20;1557997;91;21082;-49
2021/10/29 16:23:55;;;;;;;45.65;39.98;;;;;;;17.63;54.84;102811.87;1554141;92;21048;-53